sensor_id;sensor_type;location;lat;lon;timestamp;P1;durP1;ratioP1;P2;durP2;ratioP2
21012;SDS011;10664;53.582;9.712;2022-11-20T00:00:57;3.17;;;2.87;;
21012;SDS011;10664;53.582;9.712;2022-11-20T00:03:23;4.47;;;2.83;;
21012;SDS011;10664;53.582;9.712;2022-11-20T00:05:49;3.33;;;3.03;;
21012;SDS011;10664;53.582;9.712;2022-11-20T00:08:15;3.17;;;2.90;;
21012;SDS011;10664;53.582;9.712;2022-11-20T00:10:41;3.20;;;2.90;;
21012;SDS011;10664;53.582;9.712;2022-11-20T00:13:07;3.43;;;3.13;;
21012;SDS011;10664;53.582;9.712;2022-11-20T00:15:33;3.37;;;3.07;;
21012;SDS011;10664;53.582;9.712;2022-11-20T00:17:59;3.00;;;2.63;;
21012;SDS011;10664;53.582;9.712;2022-11-20T00:20:25;3.03;;;2.73;;
21012;SDS011;10664;53.582;9.712;2022-11-20T00:22:51;3.50;;;3.20;;
21012;SDS011;10664;53.582;9.712;2022-11-20T00:25:17;3.10;;;2.80;;
21012;SDS011;10664;53.582;9.712;2022-11-20T00:27:43;2.90;;;2.70;;
21012;SDS011;10664;53.582;9.712;2022-11-20T00:30:09;3.73;;;2.90;;
21012;SDS011;10664;53.582;9.712;2022-11-20T00:32:36;3.80;;;3.00;;
21012;SDS011;10664;53.582;9.712;2022-11-20T00:35:02;3.27;;;2.93;;
21012;SDS011;10664;53.582;9.712;2022-11-20T00:37:28;3.17;;;2.63;;
21012;SDS011;10664;53.582;9.712;2022-11-20T00:39:54;3.20;;;2.90;;
21012;SDS011;10664;53.582;9.712;2022-11-20T00:42:20;3.87;;;2.70;;
21012;SDS011;10664;53.582;9.712;2022-11-20T00:44:46;3.30;;;3.00;;
21012;SDS011;10664;53.582;9.712;2022-11-20T00:47:12;3.77;;;2.40;;
21012;SDS011;10664;53.582;9.712;2022-11-20T00:49:38;3.03;;;2.73;;
21012;SDS011;10664;53.582;9.712;2022-11-20T00:52:04;4.23;;;3.10;;
21012;SDS011;10664;53.582;9.712;2022-11-20T00:54:30;3.23;;;2.70;;
21012;SDS011;10664;53.582;9.712;2022-11-20T00:56:56;2.87;;;2.43;;
21012;SDS011;10664;53.582;9.712;2022-11-20T00:59:22;3.13;;;2.83;;
21012;SDS011;10664;53.582;9.712;2022-11-20T01:01:48;3.60;;;3.30;;
21012;SDS011;10664;53.582;9.712;2022-11-20T01:04:14;3.47;;;3.03;;
21012;SDS011;10664;53.582;9.712;2022-11-20T01:06:40;3.17;;;2.87;;
21012;SDS011;10664;53.582;9.712;2022-11-20T01:09:07;3.50;;;3.13;;
21012;SDS011;10664;53.582;9.712;2022-11-20T01:11:34;3.60;;;3.20;;
21012;SDS011;10664;53.582;9.712;2022-11-20T01:14:01;3.40;;;3.10;;
21012;SDS011;10664;53.582;9.712;2022-11-20T01:16:29;3.30;;;3.00;;
21012;SDS011;10664;53.582;9.712;2022-11-20T01:18:56;3.83;;;3.13;;
21012;SDS011;10664;53.582;9.712;2022-11-20T01:21:24;4.10;;;3.67;;
21012;SDS011;10664;53.582;9.712;2022-11-20T01:23:50;3.43;;;3.13;;
21012;SDS011;10664;53.582;9.712;2022-11-20T01:26:17;3.20;;;2.80;;
21012;SDS011;10664;53.582;9.712;2022-11-20T01:28:44;3.57;;;3.03;;
21012;SDS011;10664;53.582;9.712;2022-11-20T01:31:15;4.60;;;3.10;;
21012;SDS011;10664;53.582;9.712;2022-11-20T01:33:42;3.23;;;3.00;;
21012;SDS011;10664;53.582;9.712;2022-11-20T01:36:09;3.40;;;2.97;;
21012;SDS011;10664;53.582;9.712;2022-11-20T01:38:35;3.13;;;2.83;;
21012;SDS011;10664;53.582;9.712;2022-11-20T01:41:01;3.07;;;2.50;;
21012;SDS011;10664;53.582;9.712;2022-11-20T01:43:27;3.30;;;3.00;;
21012;SDS011;10664;53.582;9.712;2022-11-20T01:48:20;3.20;;;2.90;;
21012;SDS011;10664;53.582;9.712;2022-11-20T01:50:49;3.17;;;2.70;;
21012;SDS011;10664;53.582;9.712;2022-11-20T01:53:16;3.13;;;2.83;;
21012;SDS011;10664;53.582;9.712;2022-11-20T01:55:44;2.97;;;2.67;;
21012;SDS011;10664;53.582;9.712;2022-11-20T01:58:11;3.17;;;2.87;;
21012;SDS011;10664;53.582;9.712;2022-11-20T02:00:38;3.77;;;2.80;;
21012;SDS011;10664;53.582;9.712;2022-11-20T02:03:05;2.73;;;2.53;;
21012;SDS011;10664;53.582;9.712;2022-11-20T02:07:58;4.43;;;2.97;;
21012;SDS011;10664;53.582;9.712;2022-11-20T02:10:26;3.77;;;3.23;;
21012;SDS011;10664;53.582;9.712;2022-11-20T02:12:52;3.07;;;2.60;;
21012;SDS011;10664;53.582;9.712;2022-11-20T02:15:37;3.50;;;3.20;;
21012;SDS011;10664;53.582;9.712;2022-11-20T02:18:04;3.60;;;3.00;;
21012;SDS011;10664;53.582;9.712;2022-11-20T02:20:31;3.50;;;2.80;;
21012;SDS011;10664;53.582;9.712;2022-11-20T02:22:57;4.10;;;3.30;;
21012;SDS011;10664;53.582;9.712;2022-11-20T02:25:25;2.73;;;2.40;;
21012;SDS011;10664;53.582;9.712;2022-11-20T02:27:52;4.20;;;3.30;;
21012;SDS011;10664;53.582;9.712;2022-11-20T02:30:18;3.43;;;2.83;;
21012;SDS011;10664;53.582;9.712;2022-11-20T02:32:44;3.30;;;3.00;;
21012;SDS011;10664;53.582;9.712;2022-11-20T02:37:50;2.90;;;2.70;;
21012;SDS011;10664;53.582;9.712;2022-11-20T02:40:16;3.27;;;2.87;;
21012;SDS011;10664;53.582;9.712;2022-11-20T02:42:42;3.30;;;2.80;;
21012;SDS011;10664;53.582;9.712;2022-11-20T02:45:08;3.47;;;3.13;;
21012;SDS011;10664;53.582;9.712;2022-11-20T02:47:34;3.10;;;2.80;;
21012;SDS011;10664;53.582;9.712;2022-11-20T02:50:00;3.10;;;2.80;;
21012;SDS011;10664;53.582;9.712;2022-11-20T02:52:26;3.20;;;2.90;;
21012;SDS011;10664;53.582;9.712;2022-11-20T02:54:52;2.87;;;2.57;;
21012;SDS011;10664;53.582;9.712;2022-11-20T02:57:18;2.97;;;2.70;;
21012;SDS011;10664;53.582;9.712;2022-11-20T02:59:44;3.00;;;2.70;;
21012;SDS011;10664;53.582;9.712;2022-11-20T03:02:10;2.87;;;2.67;;
21012;SDS011;10664;53.582;9.712;2022-11-20T03:04:36;2.53;;;2.27;;
21012;SDS011;10664;53.582;9.712;2022-11-20T03:07:02;2.70;;;2.50;;
21012;SDS011;10664;53.582;9.712;2022-11-20T03:09:28;3.23;;;2.90;;
21012;SDS011;10664;53.582;9.712;2022-11-20T03:11:54;3.00;;;2.80;;
21012;SDS011;10664;53.582;9.712;2022-11-20T03:14:20;3.13;;;2.83;;
21012;SDS011;10664;53.582;9.712;2022-11-20T03:16:46;3.00;;;2.70;;
21012;SDS011;10664;53.582;9.712;2022-11-20T03:19:12;4.47;;;3.00;;
21012;SDS011;10664;53.582;9.712;2022-11-20T03:21:38;3.10;;;2.80;;
21012;SDS011;10664;53.582;9.712;2022-11-20T03:24:04;2.80;;;2.60;;
21012;SDS011;10664;53.582;9.712;2022-11-20T03:26:30;3.57;;;3.00;;
21012;SDS011;10664;53.582;9.712;2022-11-20T03:28:57;3.00;;;2.70;;
21012;SDS011;10664;53.582;9.712;2022-11-20T03:31:28;4.10;;;3.10;;
21012;SDS011;10664;53.582;9.712;2022-11-20T03:33:55;3.30;;;2.80;;
21012;SDS011;10664;53.582;9.712;2022-11-20T03:36:21;2.90;;;2.50;;
21012;SDS011;10664;53.582;9.712;2022-11-20T03:38:47;2.60;;;2.40;;
21012;SDS011;10664;53.582;9.712;2022-11-20T03:41:16;2.90;;;2.60;;
21012;SDS011;10664;53.582;9.712;2022-11-20T03:43:46;3.20;;;2.90;;
21012;SDS011;10664;53.582;9.712;2022-11-20T03:46:12;3.07;;;2.77;;
21012;SDS011;10664;53.582;9.712;2022-11-20T03:48:38;3.20;;;2.90;;
21012;SDS011;10664;53.582;9.712;2022-11-20T03:51:10;3.00;;;2.73;;
21012;SDS011;10664;53.582;9.712;2022-11-20T03:53:37;3.20;;;2.80;;
21012;SDS011;10664;53.582;9.712;2022-11-20T03:56:03;3.00;;;2.70;;
21012;SDS011;10664;53.582;9.712;2022-11-20T03:58:29;2.90;;;2.40;;
21012;SDS011;10664;53.582;9.712;2022-11-20T04:00:55;4.53;;;2.73;;
21012;SDS011;10664;53.582;9.712;2022-11-20T04:03:21;3.27;;;2.97;;
21012;SDS011;10664;53.582;9.712;2022-11-20T04:05:47;3.07;;;2.77;;
21012;SDS011;10664;53.582;9.712;2022-11-20T04:08:13;2.73;;;2.53;;
21012;SDS011;10664;53.582;9.712;2022-11-20T04:10:39;3.47;;;2.93;;
21012;SDS011;10664;53.582;9.712;2022-11-20T04:13:04;3.30;;;2.90;;
21012;SDS011;10664;53.582;9.712;2022-11-20T04:15:30;3.07;;;2.77;;
21012;SDS011;10664;53.582;9.712;2022-11-20T04:17:56;2.73;;;2.53;;
21012;SDS011;10664;53.582;9.712;2022-11-20T04:20:22;2.83;;;2.63;;
21012;SDS011;10664;53.582;9.712;2022-11-20T04:22:48;3.27;;;2.37;;
21012;SDS011;10664;53.582;9.712;2022-11-20T04:25:14;2.70;;;2.50;;
21012;SDS011;10664;53.582;9.712;2022-11-20T04:27:40;2.90;;;2.60;;
21012;SDS011;10664;53.582;9.712;2022-11-20T04:30:06;3.10;;;2.57;;
21012;SDS011;10664;53.582;9.712;2022-11-20T04:32:32;3.37;;;2.67;;
21012;SDS011;10664;53.582;9.712;2022-11-20T04:34:58;2.57;;;2.37;;
21012;SDS011;10664;53.582;9.712;2022-11-20T04:37:24;2.60;;;2.40;;
21012;SDS011;10664;53.582;9.712;2022-11-20T04:39:50;3.20;;;2.90;;
21012;SDS011;10664;53.582;9.712;2022-11-20T04:42:16;3.47;;;2.40;;
21012;SDS011;10664;53.582;9.712;2022-11-20T04:44:54;2.83;;;2.57;;
21012;SDS011;10664;53.582;9.712;2022-11-20T04:47:21;2.97;;;2.67;;
21012;SDS011;10664;53.582;9.712;2022-11-20T04:49:47;2.90;;;2.60;;
21012;SDS011;10664;53.582;9.712;2022-11-20T04:52:13;3.00;;;2.70;;
21012;SDS011;10664;53.582;9.712;2022-11-20T04:54:39;3.07;;;2.77;;
21012;SDS011;10664;53.582;9.712;2022-11-20T04:57:05;2.93;;;2.67;;
21012;SDS011;10664;53.582;9.712;2022-11-20T04:59:31;4.60;;;2.90;;
21012;SDS011;10664;53.582;9.712;2022-11-20T05:01:57;2.70;;;2.50;;
21012;SDS011;10664;53.582;9.712;2022-11-20T05:04:23;3.27;;;2.77;;
21012;SDS011;10664;53.582;9.712;2022-11-20T05:06:49;3.67;;;2.70;;
21012;SDS011;10664;53.582;9.712;2022-11-20T05:09:15;3.07;;;2.80;;
21012;SDS011;10664;53.582;9.712;2022-11-20T05:11:41;3.10;;;2.80;;
21012;SDS011;10664;53.582;9.712;2022-11-20T05:14:07;2.90;;;2.60;;
21012;SDS011;10664;53.582;9.712;2022-11-20T05:16:33;3.33;;;2.90;;
21012;SDS011;10664;53.582;9.712;2022-11-20T05:19:00;3.07;;;2.60;;
21012;SDS011;10664;53.582;9.712;2022-11-20T05:21:26;2.87;;;2.43;;
21012;SDS011;10664;53.582;9.712;2022-11-20T05:23:52;2.97;;;2.70;;
21012;SDS011;10664;53.582;9.712;2022-11-20T05:26:22;3.73;;;2.63;;
21012;SDS011;10664;53.582;9.712;2022-11-20T05:28:48;2.93;;;2.67;;
21012;SDS011;10664;53.582;9.712;2022-11-20T05:31:16;3.37;;;2.57;;
21012;SDS011;10664;53.582;9.712;2022-11-20T05:33:42;3.00;;;2.70;;
21012;SDS011;10664;53.582;9.712;2022-11-20T05:36:09;2.70;;;2.50;;
21012;SDS011;10664;53.582;9.712;2022-11-20T05:38:35;3.20;;;2.90;;
21012;SDS011;10664;53.582;9.712;2022-11-20T05:41:08;3.90;;;3.07;;
21012;SDS011;10664;53.582;9.712;2022-11-20T05:43:35;3.20;;;2.90;;
21012;SDS011;10664;53.582;9.712;2022-11-20T05:46:01;3.03;;;2.73;;
21012;SDS011;10664;53.582;9.712;2022-11-20T05:48:27;2.80;;;2.47;;
21012;SDS011;10664;53.582;9.712;2022-11-20T05:50:53;2.80;;;2.60;;
21012;SDS011;10664;53.582;9.712;2022-11-20T05:53:19;2.70;;;2.50;;
21012;SDS011;10664;53.582;9.712;2022-11-20T05:55:45;3.10;;;2.80;;
21012;SDS011;10664;53.582;9.712;2022-11-20T05:58:11;2.77;;;2.57;;
21012;SDS011;10664;53.582;9.712;2022-11-20T06:00:37;2.87;;;2.67;;
21012;SDS011;10664;53.582;9.712;2022-11-20T06:03:03;2.53;;;2.33;;
21012;SDS011;10664;53.582;9.712;2022-11-20T06:05:29;2.90;;;2.60;;
21012;SDS011;10664;53.582;9.712;2022-11-20T06:07:55;2.90;;;2.63;;
21012;SDS011;10664;53.582;9.712;2022-11-20T06:10:21;2.97;;;2.70;;
21012;SDS011;10664;53.582;9.712;2022-11-20T06:12:47;2.80;;;2.60;;
21012;SDS011;10664;53.582;9.712;2022-11-20T06:15:13;3.23;;;2.93;;
21012;SDS011;10664;53.582;9.712;2022-11-20T06:17:39;3.03;;;2.67;;
21012;SDS011;10664;53.582;9.712;2022-11-20T06:20:05;3.67;;;2.53;;
21012;SDS011;10664;53.582;9.712;2022-11-20T06:22:31;3.43;;;2.30;;
21012;SDS011;10664;53.582;9.712;2022-11-20T06:24:58;2.53;;;2.33;;
21012;SDS011;10664;53.582;9.712;2022-11-20T06:27:24;3.47;;;2.50;;
21012;SDS011;10664;53.582;9.712;2022-11-20T06:29:50;2.40;;;2.20;;
21012;SDS011;10664;53.582;9.712;2022-11-20T06:32:15;2.70;;;2.50;;
21012;SDS011;10664;53.582;9.712;2022-11-20T06:34:41;3.60;;;2.80;;
21012;SDS011;10664;53.582;9.712;2022-11-20T06:37:08;3.33;;;2.73;;
21012;SDS011;10664;53.582;9.712;2022-11-20T06:39:34;3.37;;;3.07;;
21012;SDS011;10664;53.582;9.712;2022-11-20T06:42:00;2.87;;;2.60;;
21012;SDS011;10664;53.582;9.712;2022-11-20T06:44:26;3.00;;;2.60;;
21012;SDS011;10664;53.582;9.712;2022-11-20T06:46:52;3.00;;;2.70;;
21012;SDS011;10664;53.582;9.712;2022-11-20T06:49:18;2.77;;;2.40;;
21012;SDS011;10664;53.582;9.712;2022-11-20T06:51:44;3.23;;;2.80;;
21012;SDS011;10664;53.582;9.712;2022-11-20T06:54:10;3.10;;;2.80;;
21012;SDS011;10664;53.582;9.712;2022-11-20T06:56:36;3.00;;;2.70;;
21012;SDS011;10664;53.582;9.712;2022-11-20T06:59:05;4.07;;;3.20;;
21012;SDS011;10664;53.582;9.712;2022-11-20T07:01:32;3.00;;;2.70;;
21012;SDS011;10664;53.582;9.712;2022-11-20T07:03:58;3.63;;;3.03;;
21012;SDS011;10664;53.582;9.712;2022-11-20T07:06:24;3.37;;;2.90;;
21012;SDS011;10664;53.582;9.712;2022-11-20T07:08:50;3.50;;;3.20;;
21012;SDS011;10664;53.582;9.712;2022-11-20T07:11:17;2.80;;;2.60;;
21012;SDS011;10664;53.582;9.712;2022-11-20T07:13:43;3.03;;;2.83;;
21012;SDS011;10664;53.582;9.712;2022-11-20T07:16:09;3.33;;;3.03;;
21012;SDS011;10664;53.582;9.712;2022-11-20T07:18:35;3.23;;;2.93;;
21012;SDS011;10664;53.582;9.712;2022-11-20T07:21:05;2.60;;;2.40;;
21012;SDS011;10664;53.582;9.712;2022-11-20T07:23:31;2.80;;;2.40;;
21012;SDS011;10664;53.582;9.712;2022-11-20T07:25:57;3.47;;;2.90;;
21012;SDS011;10664;53.582;9.712;2022-11-20T07:28:23;3.17;;;2.90;;
21012;SDS011;10664;53.582;9.712;2022-11-20T07:30:50;3.27;;;2.87;;
21012;SDS011;10664;53.582;9.712;2022-11-20T07:33:16;3.40;;;3.07;;
21012;SDS011;10664;53.582;9.712;2022-11-20T07:35:42;3.00;;;2.80;;
21012;SDS011;10664;53.582;9.712;2022-11-20T07:38:08;3.23;;;2.93;;
21012;SDS011;10664;53.582;9.712;2022-11-20T07:40:34;2.97;;;2.67;;
21012;SDS011;10664;53.582;9.712;2022-11-20T07:43:00;3.30;;;3.00;;
21012;SDS011;10664;53.582;9.712;2022-11-20T07:45:26;3.10;;;2.80;;
21012;SDS011;10664;53.582;9.712;2022-11-20T07:47:52;3.37;;;3.07;;
21012;SDS011;10664;53.582;9.712;2022-11-20T07:50:18;3.30;;;3.00;;
21012;SDS011;10664;53.582;9.712;2022-11-20T07:52:44;3.37;;;3.07;;
21012;SDS011;10664;53.582;9.712;2022-11-20T07:55:10;3.47;;;3.17;;
21012;SDS011;10664;53.582;9.712;2022-11-20T07:57:37;4.00;;;3.43;;
21012;SDS011;10664;53.582;9.712;2022-11-20T08:00:03;5.97;;;3.83;;
21012;SDS011;10664;53.582;9.712;2022-11-20T08:02:29;144.50;;;99.27;;
21012;SDS011;10664;53.582;9.712;2022-11-20T08:04:55;837.63;;;571.20;;
21012;SDS011;10664;53.582;9.712;2022-11-20T08:07:21;716.73;;;506.57;;
21012;SDS011;10664;53.582;9.712;2022-11-20T08:09:47;494.93;;;335.10;;
21012;SDS011;10664;53.582;9.712;2022-11-20T08:12:17;371.03;;;233.97;;
21012;SDS011;10664;53.582;9.712;2022-11-20T08:15:03;358.33;;;242.90;;
21012;SDS011;10664;53.582;9.712;2022-11-20T08:17:29;249.97;;;173.57;;
21012;SDS011;10664;53.582;9.712;2022-11-20T08:19:55;167.80;;;122.53;;
21012;SDS011;10664;53.582;9.712;2022-11-20T08:22:21;85.23;;;62.60;;
21012;SDS011;10664;53.582;9.712;2022-11-20T08:24:47;49.90;;;39.50;;
21012;SDS011;10664;53.582;9.712;2022-11-20T08:27:13;29.23;;;24.57;;
21012;SDS011;10664;53.582;9.712;2022-11-20T08:29:39;19.10;;;14.97;;
21012;SDS011;10664;53.582;9.712;2022-11-20T08:32:05;11.90;;;9.90;;
21012;SDS011;10664;53.582;9.712;2022-11-20T08:34:31;8.50;;;7.30;;
21012;SDS011;10664;53.582;9.712;2022-11-20T08:36:57;6.37;;;5.50;;
21012;SDS011;10664;53.582;9.712;2022-11-20T08:39:23;5.00;;;4.50;;
21012;SDS011;10664;53.582;9.712;2022-11-20T08:41:49;4.03;;;3.63;;
21012;SDS011;10664;53.582;9.712;2022-11-20T08:44:15;3.73;;;3.43;;
21012;SDS011;10664;53.582;9.712;2022-11-20T08:46:41;3.40;;;3.10;;
21012;SDS011;10664;53.582;9.712;2022-11-20T08:49:09;3.40;;;3.03;;
21012;SDS011;10664;53.582;9.712;2022-11-20T08:51:35;3.33;;;3.03;;
21012;SDS011;10664;53.582;9.712;2022-11-20T08:54:02;3.20;;;2.90;;
21012;SDS011;10664;53.582;9.712;2022-11-20T08:56:28;4.07;;;2.97;;
21012;SDS011;10664;53.582;9.712;2022-11-20T08:58:54;2.80;;;2.60;;
21012;SDS011;10664;53.582;9.712;2022-11-20T09:01:20;3.17;;;2.70;;
21012;SDS011;10664;53.582;9.712;2022-11-20T09:03:46;3.00;;;2.67;;
21012;SDS011;10664;53.582;9.712;2022-11-20T09:06:13;3.50;;;2.70;;
21012;SDS011;10664;53.582;9.712;2022-11-20T09:08:39;3.20;;;2.53;;
21012;SDS011;10664;53.582;9.712;2022-11-20T09:11:05;3.10;;;2.80;;
21012;SDS011;10664;53.582;9.712;2022-11-20T09:13:32;2.83;;;2.53;;
21012;SDS011;10664;53.582;9.712;2022-11-20T09:15:59;3.07;;;2.70;;
21012;SDS011;10664;53.582;9.712;2022-11-20T09:18:26;2.63;;;2.40;;
21012;SDS011;10664;53.582;9.712;2022-11-20T09:20:56;2.87;;;2.57;;
21012;SDS011;10664;53.582;9.712;2022-11-20T09:23:22;2.60;;;2.40;;
21012;SDS011;10664;53.582;9.712;2022-11-20T09:25:49;2.93;;;2.63;;
21012;SDS011;10664;53.582;9.712;2022-11-20T09:28:15;3.10;;;2.90;;
21012;SDS011;10664;53.582;9.712;2022-11-20T09:30:43;2.90;;;2.70;;
21012;SDS011;10664;53.582;9.712;2022-11-20T09:33:09;2.60;;;2.40;;
21012;SDS011;10664;53.582;9.712;2022-11-20T09:35:35;2.80;;;2.60;;
21012;SDS011;10664;53.582;9.712;2022-11-20T09:38:07;2.73;;;2.53;;
21012;SDS011;10664;53.582;9.712;2022-11-20T09:40:35;3.27;;;2.80;;
21012;SDS011;10664;53.582;9.712;2022-11-20T09:43:15;3.20;;;2.90;;
21012;SDS011;10664;53.582;9.712;2022-11-20T09:45:57;3.00;;;2.70;;
21012;SDS011;10664;53.582;9.712;2022-11-20T09:53:32;2.80;;;2.60;;
21012;SDS011;10664;53.582;9.712;2022-11-20T09:56:01;2.40;;;2.20;;
21012;SDS011;10664;53.582;9.712;2022-11-20T09:58:41;2.30;;;2.20;;
21012;SDS011;10664;53.582;9.712;2022-11-20T10:01:29;2.10;;;2.00;;
21012;SDS011;10664;53.582;9.712;2022-11-20T10:04:13;1.77;;;1.67;;
21012;SDS011;10664;53.582;9.712;2022-11-20T10:09:19;2.13;;;1.93;;
21012;SDS011;10664;53.582;9.712;2022-11-20T10:11:50;2.47;;;2.27;;
21012;SDS011;10664;53.582;9.712;2022-11-20T10:14:32;1.97;;;1.77;;
21012;SDS011;10664;53.582;9.712;2022-11-20T10:17:16;2.00;;;1.80;;
21012;SDS011;10664;53.582;9.712;2022-11-20T10:20:10;1.90;;;1.80;;
21012;SDS011;10664;53.582;9.712;2022-11-20T10:22:45;2.20;;;2.00;;
21012;SDS011;10664;53.582;9.712;2022-11-20T10:25:14;2.13;;;1.93;;
21012;SDS011;10664;53.582;9.712;2022-11-20T10:27:48;2.33;;;2.13;;
21012;SDS011;10664;53.582;9.712;2022-11-20T10:30:16;2.20;;;2.10;;
21012;SDS011;10664;53.582;9.712;2022-11-20T10:32:45;2.60;;;2.40;;
21012;SDS011;10664;53.582;9.712;2022-11-20T10:37:44;2.60;;;2.40;;
21012;SDS011;10664;53.582;9.712;2022-11-20T10:40:22;2.33;;;2.13;;
21012;SDS011;10664;53.582;9.712;2022-11-20T10:42:50;2.60;;;2.40;;
21012;SDS011;10664;53.582;9.712;2022-11-20T10:47:52;2.93;;;2.30;;
21012;SDS011;10664;53.582;9.712;2022-11-20T10:50:20;2.60;;;2.40;;
21012;SDS011;10664;53.582;9.712;2022-11-20T10:55:50;3.03;;;2.83;;
21012;SDS011;10664;53.582;9.712;2022-11-20T10:58:22;2.67;;;2.47;;
21012;SDS011;10664;53.582;9.712;2022-11-20T11:01:02;2.60;;;2.40;;
21012;SDS011;10664;53.582;9.712;2022-11-20T11:03:29;2.83;;;2.63;;
21012;SDS011;10664;53.582;9.712;2022-11-20T11:06:12;2.57;;;2.37;;
21012;SDS011;10664;53.582;9.712;2022-11-20T11:08:40;2.77;;;2.50;;
21012;SDS011;10664;53.582;9.712;2022-11-20T11:11:29;2.90;;;2.70;;
21012;SDS011;10664;53.582;9.712;2022-11-20T11:13:53;3.03;;;2.83;;
21012;SDS011;10664;53.582;9.712;2022-11-20T11:16:29;3.67;;;3.23;;
21012;SDS011;10664;53.582;9.712;2022-11-20T11:19:05;3.07;;;2.87;;
21012;SDS011;10664;53.582;9.712;2022-11-20T11:21:31;2.90;;;2.70;;
21012;SDS011;10664;53.582;9.712;2022-11-20T11:24:02;2.90;;;2.70;;
21012;SDS011;10664;53.582;9.712;2022-11-20T11:26:28;3.30;;;3.00;;
21012;SDS011;10664;53.582;9.712;2022-11-20T11:31:25;3.23;;;3.00;;
21012;SDS011;10664;53.582;9.712;2022-11-20T11:33:51;2.97;;;2.77;;
21012;SDS011;10664;53.582;9.712;2022-11-20T11:36:19;2.90;;;2.60;;
21012;SDS011;10664;53.582;9.712;2022-11-20T11:38:45;3.40;;;3.10;;
21012;SDS011;10664;53.582;9.712;2022-11-20T11:41:16;3.17;;;2.97;;
21012;SDS011;10664;53.582;9.712;2022-11-20T11:43:54;3.70;;;3.40;;
21012;SDS011;10664;53.582;9.712;2022-11-20T11:46:40;3.50;;;3.20;;
21012;SDS011;10664;53.582;9.712;2022-11-20T11:54:19;3.27;;;2.97;;
21012;SDS011;10664;53.582;9.712;2022-11-20T11:56:46;3.40;;;3.10;;
21012;SDS011;10664;53.582;9.712;2022-11-20T11:59:15;3.30;;;3.00;;
21012;SDS011;10664;53.582;9.712;2022-11-20T12:01:44;3.40;;;3.10;;
21012;SDS011;10664;53.582;9.712;2022-11-20T12:04:17;2.83;;;2.53;;
21012;SDS011;10664;53.582;9.712;2022-11-20T12:06:47;2.90;;;2.70;;
21012;SDS011;10664;53.582;9.712;2022-11-20T12:09:14;2.90;;;2.60;;
21012;SDS011;10664;53.582;9.712;2022-11-20T12:12:04;2.70;;;2.50;;
21012;SDS011;10664;53.582;9.712;2022-11-20T12:16:56;2.77;;;2.57;;
21012;SDS011;10664;53.582;9.712;2022-11-20T12:19:22;2.70;;;2.50;;
21012;SDS011;10664;53.582;9.712;2022-11-20T12:21:52;2.90;;;2.70;;
21012;SDS011;10664;53.582;9.712;2022-11-20T12:40:20;2.63;;;2.43;;
21012;SDS011;10664;53.582;9.712;2022-11-20T12:42:51;2.60;;;2.40;;
21012;SDS011;10664;53.582;9.712;2022-11-20T12:45:42;2.67;;;2.47;;
21012;SDS011;10664;53.582;9.712;2022-11-20T12:51:21;2.63;;;2.43;;
21012;SDS011;10664;53.582;9.712;2022-11-20T12:59:46;3.03;;;2.73;;
21012;SDS011;10664;53.582;9.712;2022-11-20T13:05:18;2.93;;;2.73;;
21012;SDS011;10664;53.582;9.712;2022-11-20T13:07:45;2.90;;;2.70;;
21012;SDS011;10664;53.582;9.712;2022-11-20T13:10:19;2.43;;;2.27;;
21012;SDS011;10664;53.582;9.712;2022-11-20T13:13:29;2.60;;;2.40;;
21012;SDS011;10664;53.582;9.712;2022-11-20T13:15:48;2.70;;;2.50;;
21012;SDS011;10664;53.582;9.712;2022-11-20T13:18:16;2.63;;;2.43;;
21012;SDS011;10664;53.582;9.712;2022-11-20T13:20:43;3.00;;;2.80;;
21012;SDS011;10664;53.582;9.712;2022-11-20T13:23:09;2.90;;;2.43;;
21012;SDS011;10664;53.582;9.712;2022-11-20T13:25:36;2.60;;;2.40;;
21012;SDS011;10664;53.582;9.712;2022-11-20T13:30:35;3.27;;;2.70;;
21012;SDS011;10664;53.582;9.712;2022-11-20T13:33:06;2.30;;;2.10;;
21012;SDS011;10664;53.582;9.712;2022-11-20T13:35:35;2.50;;;2.30;;
21012;SDS011;10664;53.582;9.712;2022-11-20T13:40:27;2.57;;;2.37;;
21012;SDS011;10664;53.582;9.712;2022-11-20T13:45:23;2.90;;;2.70;;
21012;SDS011;10664;53.582;9.712;2022-11-20T13:47:50;2.57;;;2.37;;
21012;SDS011;10664;53.582;9.712;2022-11-20T13:50:17;2.50;;;2.30;;
21012;SDS011;10664;53.582;9.712;2022-11-20T13:57:57;2.70;;;2.50;;
21012;SDS011;10664;53.582;9.712;2022-11-20T14:00:25;2.47;;;2.27;;
21012;SDS011;10664;53.582;9.712;2022-11-20T14:02:59;2.70;;;2.50;;
21012;SDS011;10664;53.582;9.712;2022-11-20T14:05:26;2.67;;;2.47;;
21012;SDS011;10664;53.582;9.712;2022-11-20T14:07:52;2.70;;;2.50;;
21012;SDS011;10664;53.582;9.712;2022-11-20T14:10:20;2.90;;;2.70;;
21012;SDS011;10664;53.582;9.712;2022-11-20T14:12:46;2.63;;;2.43;;
21012;SDS011;10664;53.582;9.712;2022-11-20T14:15:24;2.77;;;2.57;;
21012;SDS011;10664;53.582;9.712;2022-11-20T14:17:50;2.67;;;2.47;;
21012;SDS011;10664;53.582;9.712;2022-11-20T14:20:16;2.60;;;2.40;;
21012;SDS011;10664;53.582;9.712;2022-11-20T14:22:48;2.30;;;2.20;;
21012;SDS011;10664;53.582;9.712;2022-11-20T14:27:41;2.80;;;2.60;;
21012;SDS011;10664;53.582;9.712;2022-11-20T14:30:12;2.63;;;2.43;;
21012;SDS011;10664;53.582;9.712;2022-11-20T14:32:39;2.80;;;2.60;;
21012;SDS011;10664;53.582;9.712;2022-11-20T14:35:07;2.93;;;2.73;;
21012;SDS011;10664;53.582;9.712;2022-11-20T14:37:34;2.73;;;2.53;;
21012;SDS011;10664;53.582;9.712;2022-11-20T14:40:02;2.73;;;2.53;;
21012;SDS011;10664;53.582;9.712;2022-11-20T14:42:28;2.50;;;2.30;;
21012;SDS011;10664;53.582;9.712;2022-11-20T14:44:56;2.60;;;2.40;;
21012;SDS011;10664;53.582;9.712;2022-11-20T14:47:26;2.40;;;2.20;;
21012;SDS011;10664;53.582;9.712;2022-11-20T14:49:53;2.90;;;2.70;;
21012;SDS011;10664;53.582;9.712;2022-11-20T14:52:21;2.90;;;2.70;;
21012;SDS011;10664;53.582;9.712;2022-11-20T14:54:51;2.70;;;2.50;;
21012;SDS011;10664;53.582;9.712;2022-11-20T15:00:18;2.60;;;2.40;;
21012;SDS011;10664;53.582;9.712;2022-11-20T15:02:45;2.70;;;2.50;;
21012;SDS011;10664;53.582;9.712;2022-11-20T15:05:12;2.70;;;2.50;;
21012;SDS011;10664;53.582;9.712;2022-11-20T15:07:39;2.60;;;2.40;;
21012;SDS011;10664;53.582;9.712;2022-11-20T15:10:09;2.80;;;2.60;;
21012;SDS011;10664;53.582;9.712;2022-11-20T15:12:59;2.83;;;2.63;;
21012;SDS011;10664;53.582;9.712;2022-11-20T15:15:29;2.97;;;2.77;;
21012;SDS011;10664;53.582;9.712;2022-11-20T15:17:56;2.87;;;2.67;;
21012;SDS011;10664;53.582;9.712;2022-11-20T15:20:24;2.57;;;2.37;;
21012;SDS011;10664;53.582;9.712;2022-11-20T15:22:51;2.80;;;2.60;;
21012;SDS011;10664;53.582;9.712;2022-11-20T15:25:17;2.87;;;2.67;;
21012;SDS011;10664;53.582;9.712;2022-11-20T15:27:43;3.00;;;2.80;;
21012;SDS011;10664;53.582;9.712;2022-11-20T15:30:17;3.03;;;2.83;;
21012;SDS011;10664;53.582;9.712;2022-11-20T15:32:43;2.70;;;2.50;;
21012;SDS011;10664;53.582;9.712;2022-11-20T15:35:10;3.30;;;3.10;;
21012;SDS011;10664;53.582;9.712;2022-11-20T15:37:36;2.73;;;2.53;;
21012;SDS011;10664;53.582;9.712;2022-11-20T15:40:03;3.60;;;3.30;;
21012;SDS011;10664;53.582;9.712;2022-11-20T15:42:29;3.10;;;2.67;;
21012;SDS011;10664;53.582;9.712;2022-11-20T15:44:55;2.83;;;2.63;;
21012;SDS011;10664;53.582;9.712;2022-11-20T15:47:23;2.93;;;2.73;;
21012;SDS011;10664;53.582;9.712;2022-11-20T15:49:51;3.17;;;2.90;;
21012;SDS011;10664;53.582;9.712;2022-11-20T15:52:16;3.20;;;2.90;;
21012;SDS011;10664;53.582;9.712;2022-11-20T15:54:42;3.00;;;2.80;;
21012;SDS011;10664;53.582;9.712;2022-11-20T15:57:08;3.37;;;3.17;;
21012;SDS011;10664;53.582;9.712;2022-11-20T15:59:34;2.93;;;2.73;;
21012;SDS011;10664;53.582;9.712;2022-11-20T16:02:08;2.90;;;2.63;;
21012;SDS011;10664;53.582;9.712;2022-11-20T16:04:34;2.53;;;2.33;;
21012;SDS011;10664;53.582;9.712;2022-11-20T16:07:00;2.67;;;2.47;;
21012;SDS011;10664;53.582;9.712;2022-11-20T16:09:26;2.80;;;2.60;;